createdAt,value
2023-05-16T00:03:43.016Z,14.73
2023-05-16T00:08:35.817Z,15.97
2023-05-16T00:13:29.814Z,13.90
2023-05-16T00:18:23.796Z,15.50
2023-05-16T00:23:17.208Z,15.50
2023-05-16T00:28:09.511Z,15.43
2023-05-16T00:33:02.694Z,16.67
2023-05-16T00:37:55.121Z,16.77
2023-05-16T00:42:47.684Z,16.63
2023-05-16T00:47:39.797Z,16.90
2023-05-16T00:52:33.751Z,17.90
2023-05-16T00:57:26.061Z,16.77
2023-05-16T01:02:18.364Z,17.03
2023-05-16T01:07:26.539Z,19.73
2023-05-16T01:12:27.731Z,17.93
2023-05-16T01:17:53.614Z,16.23
2023-05-16T01:23:03.860Z,15.90
2023-05-16T01:27:58.038Z,15.50
2023-05-16T01:32:50.108Z,20.20
2023-05-16T01:38:18.718Z,17.07
2023-05-16T01:43:14.418Z,17.20
2023-05-16T01:48:10.894Z,20.20
2023-05-16T01:53:16.941Z,17.97
2023-05-16T01:58:11.535Z,18.53
2023-05-16T02:03:03.647Z,17.20
2023-05-16T02:07:56.487Z,18.10
2023-05-16T02:12:50.492Z,17.00
2023-05-16T02:17:42.815Z,16.83
2023-05-16T02:22:34.820Z,22.43
2023-05-16T02:27:26.905Z,19.50
2023-05-16T02:32:19.142Z,20.97
2023-05-16T02:37:13.309Z,19.93
2023-05-16T02:42:06.888Z,18.30
2023-05-16T02:46:58.979Z,18.30
2023-05-16T02:51:51.042Z,17.73
2023-05-16T02:56:43.204Z,18.50
2023-05-16T03:01:35.181Z,16.57
2023-05-16T03:06:27.267Z,17.47
2023-05-16T03:11:22.857Z,15.93
2023-05-16T03:16:15.861Z,15.13
2023-05-16T03:21:08.182Z,15.23
2023-05-16T03:26:00.392Z,17.17
2023-05-16T03:30:52.473Z,16.27
2023-05-16T03:35:46.863Z,16.60
2023-05-16T03:40:39.311Z,16.33
2023-05-16T03:45:31.667Z,16.37
2023-05-16T03:50:25.010Z,16.23
2023-05-16T03:55:17.054Z,15.90
2023-05-16T04:00:11.381Z,15.97
2023-05-16T04:05:04.737Z,13.80
2023-05-16T04:09:58.837Z,14.17
2023-05-16T04:14:50.919Z,14.13
2023-05-16T04:19:42.935Z,13.73
2023-05-16T04:24:35.133Z,13.70
2023-05-16T04:29:27.309Z,13.67
2023-05-16T04:34:20.580Z,12.93
2023-05-16T04:39:13.012Z,12.70
2023-05-16T04:44:05.209Z,13.07
2023-05-16T04:48:57.179Z,12.77
2023-05-16T04:53:49.301Z,12.97
2023-05-16T04:58:42.897Z,15.00
2023-05-16T05:03:36.058Z,14.43
2023-05-16T05:08:28.167Z,15.40
2023-05-16T05:13:20.164Z,14.63
2023-05-16T05:18:12.285Z,14.67
2023-05-16T05:23:04.461Z,15.77
2023-05-16T05:27:56.748Z,14.60
2023-05-16T05:32:48.838Z,16.63
2023-05-16T05:37:41.035Z,16.67
2023-05-16T05:42:33.132Z,16.20
2023-05-16T05:47:25.776Z,16.90
2023-05-16T05:52:17.851Z,16.47
2023-05-16T05:57:09.900Z,17.77
2023-05-16T06:02:02.145Z,16.93
2023-05-16T06:06:54.311Z,17.97
2023-05-16T06:11:46.526Z,18.13
2023-05-16T06:16:40.520Z,18.33
2023-05-16T06:21:33.546Z,19.10
2023-05-16T06:26:25.979Z,21.37
2023-05-16T06:31:18.195Z,24.40
2023-05-16T06:36:10.582Z,24.97
2023-05-16T06:41:02.554Z,25.00
2023-05-16T06:45:54.638Z,25.67
2023-05-16T06:50:51.938Z,27.43
2023-05-16T06:55:45.112Z,26.70
2023-05-16T07:00:37.273Z,25.27
2023-05-16T07:05:29.968Z,22.67
2023-05-16T07:10:22.875Z,23.73
2023-05-16T07:15:15.040Z,21.37
2023-05-16T07:20:10.311Z,20.70
2023-05-16T07:25:04.535Z,19.50
2023-05-16T07:29:56.685Z,18.87
2023-05-16T07:34:48.829Z,18.50
2023-05-16T07:39:41.079Z,16.80
2023-05-16T07:44:33.170Z,16.80
2023-05-16T07:49:25.250Z,16.03
2023-05-16T07:54:17.316Z,13.80
2023-05-16T07:59:10.109Z,13.93
2023-05-16T08:04:02.243Z,11.73
2023-05-16T08:08:54.838Z,11.80
2023-05-16T08:13:46.887Z,10.80
2023-05-16T08:18:39.265Z,11.87
2023-05-16T08:23:31.511Z,11.77
2023-05-16T08:28:23.888Z,10.37
2023-05-16T08:33:16.247Z,11.67
2023-05-16T08:38:08.805Z,10.97
2023-05-16T08:43:01.403Z,10.23
2023-05-16T08:47:57.305Z,10.90
2023-05-16T08:52:54.096Z,9.80
2023-05-16T08:57:46.634Z,10.03
2023-05-16T09:02:42.753Z,9.40
2023-05-16T09:07:35.274Z,10.47
2023-05-16T09:12:27.504Z,9.73
2023-05-16T09:17:28.465Z,9.97
2023-05-16T09:22:29.925Z,9.67
2023-05-16T09:27:22.309Z,10.07
2023-05-16T09:32:17.398Z,8.97
2023-05-16T09:37:14.089Z,8.60
2023-05-16T09:42:07.992Z,8.53
2023-05-16T09:47:01.280Z,8.47
2023-05-16T09:51:53.912Z,7.43
2023-05-16T09:56:50.801Z,6.90
2023-05-16T10:01:43.829Z,6.63
2023-05-16T10:06:36.895Z,7.33
2023-05-16T10:11:29.801Z,7.60
2023-05-16T10:16:24.299Z,7.50
2023-05-16T10:21:19.778Z,6.80
2023-05-16T10:26:16.202Z,6.77
2023-05-16T10:31:10.289Z,6.00
2023-05-16T10:36:05.587Z,6.30
2023-05-16T10:40:58.557Z,6.90
2023-05-16T10:46:10.946Z,5.70
2023-05-16T10:51:04.481Z,5.43
2023-05-16T10:55:59.424Z,4.80
2023-05-16T11:01:18.852Z,5.30
2023-05-16T11:06:12.138Z,3.50
2023-05-16T11:11:42.127Z,4.70
2023-05-16T11:16:36.389Z,4.37
2023-05-16T11:22:11.928Z,3.60
2023-05-16T11:27:05.020Z,4.10
2023-05-16T11:31:59.935Z,3.93
2023-05-16T11:36:52.682Z,3.60
2023-05-16T11:41:47.810Z,3.40
2023-05-16T11:46:41.199Z,3.60
2023-05-16T11:51:34.975Z,3.13
2023-05-16T11:56:27.778Z,3.20
2023-05-16T12:01:19.895Z,3.10
2023-05-16T12:06:12.006Z,3.67
2023-05-16T12:11:04.192Z,3.27
2023-05-16T12:15:56.838Z,3.20
2023-05-16T12:20:49.094Z,3.20
2023-05-16T12:25:47.202Z,2.90
2023-05-16T12:30:42.435Z,2.80
2023-05-16T12:35:35.351Z,3.23
2023-05-16T12:40:31.598Z,3.40
2023-05-16T12:45:24.435Z,3.67
2023-05-16T12:50:20.012Z,3.00
2023-05-16T12:55:12.628Z,2.80
2023-05-16T13:00:08.153Z,2.70
2023-05-16T13:05:00.574Z,2.57
2023-05-16T13:09:52.850Z,3.20
2023-05-16T13:14:45.411Z,3.40
2023-05-16T13:19:37.843Z,3.13
2023-05-16T13:24:29.961Z,2.63
2023-05-16T13:29:22.157Z,2.40
2023-05-16T13:34:14.255Z,2.20
2023-05-16T13:39:06.349Z,2.17
2023-05-16T13:43:59.070Z,2.13
2023-05-16T13:48:51.172Z,1.73
2023-05-16T13:53:44.492Z,2.23
2023-05-16T13:58:45.802Z,2.10
2023-05-16T14:03:45.009Z,2.10
2023-05-16T14:08:37.031Z,1.87
2023-05-16T14:13:29.111Z,2.00
2023-05-16T14:18:21.477Z,1.80
2023-05-16T14:23:13.658Z,2.10
2023-05-16T14:28:05.983Z,2.47
2023-05-16T14:32:59.512Z,2.00
2023-05-16T14:37:51.929Z,2.83
2023-05-16T14:42:44.039Z,2.30
2023-05-16T14:47:36.415Z,2.50
2023-05-16T14:52:28.606Z,2.03
2023-05-16T14:57:20.549Z,1.97
2023-05-16T15:02:12.774Z,2.13
2023-05-16T15:07:05.199Z,2.03
2023-05-16T15:11:57.261Z,2.07
2023-05-16T15:16:49.698Z,3.70
2023-05-16T15:21:41.891Z,1.97
2023-05-16T15:26:34.247Z,2.00
2023-05-16T15:31:26.545Z,4.67
2023-05-16T15:36:18.728Z,4.40
2023-05-16T15:41:24.089Z,2.50
2023-05-16T15:46:23.340Z,1.87
2023-05-16T15:51:16.103Z,2.13
2023-05-16T15:56:09.720Z,1.80
2023-05-16T16:01:02.448Z,1.80
2023-05-16T16:05:55.016Z,1.97
2023-05-16T16:10:47.433Z,1.57
2023-05-16T16:15:41.318Z,1.97
2023-05-16T16:20:33.648Z,1.40
2023-05-16T16:25:26.102Z,1.70
2023-05-16T16:30:18.611Z,1.57
2023-05-16T16:35:10.792Z,2.27
2023-05-16T16:40:03.997Z,2.73
2023-05-16T16:44:56.682Z,1.53
2023-05-16T16:49:48.888Z,1.30
2023-05-16T16:54:40.972Z,1.93
2023-05-16T16:59:33.046Z,1.70
2023-05-16T17:04:25.369Z,1.80
2023-05-16T17:09:18.424Z,1.60
2023-05-16T17:14:15.611Z,1.60
2023-05-16T17:19:08.858Z,2.23
2023-05-16T17:24:01.234Z,1.60
2023-05-16T17:28:53.502Z,1.70
2023-05-16T17:33:45.746Z,1.70
2023-05-16T17:38:37.779Z,1.87
2023-05-16T17:43:31.118Z,1.30
2023-05-16T17:48:23.737Z,1.77
2023-05-16T17:53:16.452Z,1.43
2023-05-16T17:58:09.801Z,1.87
2023-05-16T18:03:03.767Z,1.63
2023-05-16T18:07:56.001Z,1.67
2023-05-16T18:12:48.524Z,1.70
2023-05-16T18:17:40.646Z,2.13
2023-05-16T18:22:32.974Z,1.80
2023-05-16T18:27:25.120Z,3.40
2023-05-16T18:32:17.420Z,4.27
2023-05-16T18:37:09.561Z,5.67
2023-05-16T18:42:03.544Z,5.37
2023-05-16T18:46:57.788Z,5.03
2023-05-16T18:51:50.177Z,3.63
2023-05-16T18:56:43.128Z,2.33
2023-05-16T19:01:35.818Z,3.43
2023-05-16T19:06:28.017Z,2.20
2023-05-16T19:11:22.503Z,2.20
2023-05-16T19:16:15.149Z,2.40
2023-05-16T19:21:08.165Z,3.67
2023-05-16T19:26:00.886Z,2.43
2023-05-16T19:30:53.012Z,2.93
2023-05-16T19:35:45.818Z,3.83
2023-05-16T19:40:38.241Z,4.00
2023-05-16T19:45:30.661Z,4.53
2023-05-16T19:50:22.992Z,4.37
2023-05-16T19:55:15.159Z,4.23
2023-05-16T20:00:08.373Z,4.87
2023-05-16T20:05:06.584Z,3.63
2023-05-16T20:09:58.796Z,4.07
2023-05-16T20:14:51.814Z,4.03
2023-05-16T20:19:44.108Z,3.33
2023-05-16T20:24:36.697Z,2.77
2023-05-16T20:29:30.393Z,2.67
2023-05-16T20:34:22.602Z,2.90
2023-05-16T20:39:14.774Z,2.03
2023-05-16T20:44:06.869Z,2.37
2023-05-16T20:48:58.979Z,2.43
2023-05-16T20:53:51.136Z,2.87
2023-05-16T20:58:43.788Z,2.33
2023-05-16T21:03:38.258Z,2.30
2023-05-16T21:08:30.434Z,1.97
2023-05-16T21:13:22.738Z,2.23
2023-05-16T21:18:14.866Z,1.40
2023-05-16T21:23:07.170Z,1.63
2023-05-16T21:28:00.268Z,1.40
2023-05-16T21:32:52.285Z,1.60
2023-05-16T21:37:44.691Z,1.50
2023-05-16T21:42:37.073Z,1.00
2023-05-16T21:47:29.134Z,1.20
2023-05-16T21:52:21.403Z,1.37
2023-05-16T21:57:13.565Z,1.30
2023-05-16T22:02:05.734Z,1.00
2023-05-16T22:06:57.839Z,1.20
2023-05-16T22:11:50.216Z,1.43
2023-05-16T22:16:42.278Z,1.13
2023-05-16T22:21:34.524Z,1.00
2023-05-16T22:26:26.620Z,1.83
2023-05-16T22:31:18.955Z,1.17
2023-05-16T22:36:11.091Z,1.20
2023-05-16T22:41:03.328Z,1.23
2023-05-16T22:45:56.258Z,1.07
2023-05-16T22:50:48.698Z,0.80
2023-05-16T22:55:40.822Z,0.70
2023-05-16T23:00:32.898Z,0.80
2023-05-16T23:05:25.097Z,1.17
2023-05-16T23:10:17.268Z,0.60
2023-05-16T23:15:10.388Z,1.10
2023-05-16T23:20:04.937Z,1.50
2023-05-16T23:24:58.135Z,0.93
2023-05-16T23:29:50.182Z,1.17
2023-05-16T23:34:42.255Z,1.00
2023-05-16T23:39:34.421Z,1.30
2023-05-16T23:44:26.490Z,0.63
2023-05-16T23:49:18.729Z,0.90
2023-05-16T23:54:10.920Z,1.27
2023-05-16T23:59:03.263Z,1.23
